Date,TemperatureHighF,TemperatureAvgF,TemperatureLowF,DewpointHighF,DewpointAvgF,DewpointLowF,HumidityHigh,HumidityAvg,HumidityLow,PressureMaxIn,PressureMinIn,WindSpeedMaxMPH,WindSpeedAvgMPH,GustSpeedMaxMPH,PrecipitationSumIn
2013-1-1,72.4,62.5,48.0,67.6,61.1,47.7,100,96,83,30.13,29.96,6,0,8,0.19
2013-1-2,59.3,52.6,46.0,58.5,50.1,44.1,99,91,79,30.19,29.99,7,0,7,0.01
2013-1-3,45.9,41.8,32.7,44.5,40.4,31.7,99,95,84,30.36,30.18,5,0,5,0.30
2013-1-4,55.2,41.0,31.3,41.3,34.9,30.2,97,81,45,30.43,30.33,6,0,6,0.00
2013-1-5,54.4,45.5,35.1,46.9,38.5,33.2,97,78,53,30.39,30.25,3,0,7,0.00
2013-1-6,53.0,48.6,43.6,48.4,44.5,41.7,96,86,72,30.29,30.20,3,0,5,0.02
2013-1-7,61.2,47.1,34.9,45.2,40.3,34.4,99,80,44,30.34,30.22,4,0,8,0.00
2013-1-8,64.1,56.2,42.8,60.5,52.0,40.8,94,86,79,30.29,30.18,3,0,5,0.00
2013-1-9,62.8,61.8,61.4,59.2,58.9,58.6,92,90,87,30.21,30.19,1,0,3,0.00
2013-1-10,73.2,67.5,63.2,69.8,66.6,62.9,100,97,88,30.28,30.07,3,1,10,0.55
2013-1-11,75.3,68.1,60.5,71.2,66.8,60.4,100,96,85,30.18,30.06,7,0,7,0.00
2013-1-12,74.4,70.0,66.8,69.3,68.1,66.5,100,94,83,30.14,30.01,11,0,11,0.00
2013-1-13,74.8,71.1,68.4,71.2,69.7,67.8,99,95,88,30.04,29.97,8,0,8,0.00
2013-1-14,76.5,69.2,54.1,71.2,67.6,53.3,100,95,81,30.12,30.03,8,0,8,0.00
2013-1-15,75.0,66.3,53.8,72.0,65.4,53.2,100,97,89,30.08,29.94,6,0,6,0.29
2013-1-16,70.5,56.9,46.0,70.5,56.6,45.6,100,99,96,30.03,29.93,5,0,5,1.29
2013-1-17,46.2,42.4,39.0,45.7,39.1,34.5,99,88,74,30.32,30.02,14,1,14,0.04
2013-1-18,57.9,43.1,31.8,42.3,37.1,31.2,98,82,48,30.52,30.32,9,0,9,0.00
2013-1-19,63.5,46.2,30.1,52.0,41.0,29.6,100,84,56,30.42,30.25,6,0,6,0.00
2013-1-20,64.7,47.6,35.0,51.2,42.4,34.7,100,85,48,30.28,30.13,6,0,6,0.00
2013-1-21,65.3,49.6,34.5,49.7,41.8,34.2,100,78,46,30.22,30.11,7,0,7,0.00
2013-1-22,58.6,44.6,34.4,41.9,35.9,30.5,97,75,39,30.38,30.20,4,0,8,0.00
2013-1-23,64.9,46.3,30.7,52.1,41.5,30.2,99,85,57,30.43,30.31,2,0,4,0.00
2013-1-24,72.7,56.0,37.9,59.4,50.7,37.6,100,84,56,30.35,30.23,6,0,6,0.00
2013-1-25,70.3,55.9,43.3,60.8,52.0,42.8,100,88,61,30.32,30.18,9,0,9,0.00
2013-1-26,51.4,49.0,47.5,51.1,48.7,47.2,100,99,98,30.24,30.18,0,0,0,0.00
2013-1-27,72.4,57.2,44.7,61.8,53.7,44.4,100,89,68,30.33,30.25,4,0,5,0.00
2013-1-28,73.2,62.5,48.4,66.6,60.2,48.0,100,93,79,30.32,30.18,6,0,7,0.00
2013-1-29,77.8,71.0,66.1,71.5,68.9,65.2,98,93,81,30.18,29.90,11,1,11,0.03
2013-1-30,75.0,64.2,42.7,72.4,62.5,37.0,99,94,77,30.10,29.66,14,1,14,0.57
2013-1-31,57.2,43.2,31.9,38.0,34.0,28.2,99,74,35,30.33,30.10,5,0,13,0.00
2013-2-1,60.4,43.6,32.5,42.6,36.2,28.7,100,78,42,30.40,30.30,5,0,7,0.00
2013-2-2,61.8,44.9,26.9,47.8,37.3,25.9,98,78,41,30.39,30.18,5,0,5,0.02
2013-2-3,66.8,50.9,39.1,48.9,41.1,31.6,100,75,28,30.26,30.12,8,0,8,0.00
2013-2-4,64.5,50.7,36.0,54.4,44.8,35.5,99,83,52,30.14,29.99,3,0,3,0.01
2013-2-5,65.3,58.1,53.9,63.0,57.5,53.6,100,98,90,30.04,29.96,4,0,4,0.32
2013-2-6,71.8,59.4,52.5,62.1,57.1,52.0,100,93,67,30.17,30.03,7,0,7,0.01
2013-2-7,74.4,61.7,51.5,64.7,59.5,50.7,100,93,69,30.06,29.81,12,1,12,2.78
2013-2-8,71.8,57.8,47.1,62.0,54.4,46.9,100,89,63,30.16,29.95,5,0,5,0.00
2013-2-9,64.6,52.5,42.5,54.4,47.1,41.1,98,83,55,30.27,30.15,6,0,9,0.00
2013-2-10,69.6,59.3,41.5,69.0,58.2,41.0,100,96,88,30.17,30.00,10,1,14,0.04
2013-2-11,73.2,64.6,57.4,72.5,63.9,56.6,100,97,90,30.10,30.01,5,0,10,1.32
2013-2-12,71.1,64.1,57.5,70.7,63.3,56.9,100,97,92,30.06,29.77,7,1,9,0.68
2013-2-13,70.6,55.5,44.9,69.4,53.8,44.3,99,94,72,30.06,29.77,6,0,9,0.38
2013-2-14,58.2,44.9,35.3,46.1,41.7,34.8,99,90,60,30.17,30.03,5,0,5,3.96
2013-2-15,66.2,47.6,30.9,48.2,40.0,30.6,100,79,35,30.17,30.04,6,0,6,0.00
2013-2-16,54.6,45.8,29.1,44.1,32.4,20.1,93,63,28,30.29,30.06,12,1,12,0.00
2013-2-17,57.9,38.1,24.1,34.5,26.4,16.9,98,70,26,30.40,30.27,6,0,6,0.00
2013-2-18,62.4,48.7,28.3,54.4,41.6,27.6,99,79,54,30.32,30.05,12,1,12,0.00
2013-2-19,67.9,58.7,34.5,61.9,50.0,33.0,98,75,33,30.21,30.00,11,0,11,0.47
2013-2-20,59.1,43.4,30.3,38.7,31.5,25.4,98,69,31,30.27,30.10,6,0,8,0.00
2013-2-21,67.6,52.9,32.9,65.3,47.0,32.1,98,82,47,30.11,29.92,7,0,9,0.00
2013-2-22,69.6,67.5,66.2,69.6,67.3,65.3,100,99,96,29.98,29.87,2,0,6,2.40
2013-2-23,70.0,60.2,56.2,70.0,60.2,56.1,100,100,97,29.96,29.78,5,0,5,1.02
2013-2-24,58.4,53.7,52.1,56.2,53.5,52.1,100,99,90,30.00,29.93,4,0,4,0.00
2013-2-25,69.2,61.7,56.8,65.7,60.6,56.2,100,96,81,29.90,29.53,8,1,14,4.66
2013-2-26,66.4,57.3,48.8,66.4,50.0,43.7,100,78,52,29.93,29.52,8,1,11,0.44
2013-2-27,68.3,53.0,43.0,47.1,44.8,42.0,99,77,43,30.03,29.92,6,0,6,0.00
2013-2-28,61.4,49.7,40.4,44.2,39.1,33.5,99,70,36,30.08,29.98,10,0,10,0.00
2013-3-1,57.9,46.3,37.1,41.3,36.4,32.3,93,71,39,30.15,30.01,8,0,8,0.00
2013-3-2,50.6,39.4,27.9,34.3,29.4,26.8,98,70,43,30.18,30.08,15,1,15,0.00
2013-3-3,53.6,40.1,29.9,31.2,28.2,24.8,95,65,35,30.22,30.11,11,0,11,0.00
2013-3-4,64.4,49.0,28.2,56.3,42.4,27.5,98,80,53,30.22,30.01,5,0,11,0.00
2013-3-5,74.9,60.9,42.8,63.8,55.0,40.1,100,82,59,30.14,29.93,6,1,13,0.00
2013-3-6,59.9,47.0,36.4,39.8,33.2,28.2,97,63,33,30.27,30.14,12,0,14,0.00
2013-3-7,65.7,46.1,29.9,44.8,35.8,28.6,97,72,35,30.35,30.21,8,0,8,0.00
2013-3-8,75.1,49.7,30.8,49.2,38.4,30.0,99,73,23,30.32,30.19,5,0,6,0.00
2013-3-9,71.3,54.8,40.4,57.0,48.2,39.6,99,81,38,30.23,30.09,8,0,10,0.00
2013-3-10,72.9,62.2,50.5,63.1,57.7,49.1,97,86,70,30.12,29.98,10,1,16,0.00
2013-3-11,71.3,58.6,45.5,65.9,57.1,44.1,99,95,83,29.99,29.83,13,0,13,2.19
2013-3-12,65.8,49.9,38.9,45.5,40.2,36.8,97,74,37,30.19,29.96,13,0,13,0.00
2013-3-13,66.8,50.9,33.0,47.0,35.3,24.6,99,64,23,30.32,30.18,12,0,12,0.00
2013-3-14,66.5,46.6,31.6,37.8,30.7,23.7,96,62,22,30.44,30.28,8,0,8,0.00
2013-3-15,74.1,53.1,32.2,51.6,42.5,31.5,99,72,35,30.32,30.15,9,0,9,0.00
2013-3-16,77.7,59.9,40.5,58.9,51.7,40.0,99,78,45,30.15,30.01,11,1,11,0.00
2013-3-17,73.0,60.2,47.6,65.2,57.5,47.1,100,92,70,30.04,29.93,4,0,7,0.00
2013-3-18,81.4,70.3,61.7,71.5,67.0,60.8,99,90,71,29.95,29.81,9,1,9,0.00
2013-3-19,79.8,65.2,51.7,68.6,57.1,49.8,99,78,38,30.05,29.88,7,0,8,0.00
2013-3-20,67.6,55.8,36.8,50.8,39.0,33.0,96,56,33,30.11,29.97,3,0,6,0.00
2013-3-21,67.5,50.9,35.9,44.4,34.2,24.0,95,61,21,30.08,29.92,4,0,8,0.00
2013-3-22,67.9,57.4,46.4,54.6,45.1,32.0,90,66,36,29.98,29.90,7,1,13,0.00
2013-3-23,74.1,65.0,61.4,68.2,59.4,43.8,100,84,51,29.91,29.61,7,0,7,1.73
2013-3-24,84.7,71.0,49.3,71.1,58.8,34.3,100,69,29,29.92,29.55,13,1,13,0.04
2013-3-25,62.1,48.9,36.8,35.3,29.2,21.3,86,50,22,30.23,29.92,14,1,14,0.00
2013-3-26,57.1,43.2,29.4,31.6,28.6,25.3,93,60,32,30.37,30.22,13,1,13,0.00
2013-3-27,63.7,43.7,26.9,39.2,30.2,25.8,97,66,25,30.44,30.28,10,0,10,0.00
2013-3-28,73.6,49.9,29.4,42.8,35.2,26.7,98,66,19,30.37,30.25,5,0,7,0.00
2013-3-29,73.7,52.2,33.5,54.3,41.7,32.7,98,75,25,30.35,30.23,7,0,9,0.00
2013-3-30,76.7,59.9,42.9,60.0,52.3,42.4,100,79,44,30.23,30.07,6,0,10,0.00
2013-3-31,80.6,65.7,51.6,66.3,60.5,51.1,100,85,60,30.08,29.90,5,0,8,0.01
2013-4-1,77.6,64.1,49.8,64.8,58.5,48.7,100,84,52,30.06,29.91,4,0,10,0.00
2013-4-2,81.6,62.0,41.9,56.3,49.2,41.4,99,70,29,30.14,30.02,4,0,7,0.00
2013-4-3,61.2,57.0,53.5,59.4,55.7,51.8,99,95,86,30.09,29.82,12,0,12,1.54
2013-4-4,75.5,64.5,58.5,65.6,60.9,56.0,99,89,63,29.96,29.84,7,0,7,0.00
2013-4-5,66.6,56.1,44.9,56.4,51.3,43.8,98,85,57,30.11,29.91,6,0,6,0.00
2013-4-6,74.0,56.4,37.8,54.1,47.5,37.2,100,76,40,30.19,30.09,6,0,8,0.00
2013-4-7,75.8,61.1,41.5,65.4,56.9,41.0,99,87,65,30.16,30.05,6,0,6,0.00
2013-4-8,80.8,69.4,56.1,67.7,62.6,55.5,100,82,49,30.11,30.00,9,1,9,0.00
2013-4-9,81.3,70.4,59.4,69.4,64.3,59.1,100,83,56,30.13,29.99,12,0,12,0.00
2013-4-10,83.3,69.7,52.8,71.1,64.5,52.2,100,85,63,30.07,29.91,12,1,12,0.00
2013-4-11,78.3,72.3,64.0,74.7,70.8,63.6,100,95,88,29.92,29.59,12,1,12,3.19
2013-4-12,76.5,62.7,50.4,63.6,54.3,49.1,99,78,40,29.99,29.76,9,0,9,0.00
2013-4-13,83.0,63.1,43.0,58.6,51.3,42.5,99,71,29,30.06,29.89,4,0,7,0.00
2013-4-14,65.4,60.7,57.0,65.4,60.0,55.6,100,98,93,29.98,29.68,4,0,13,1.56
2013-4-15,82.9,70.0,62.1,73.1,67.3,61.8,100,92,71,30.06,29.86,3,0,4,0.00
2013-4-16,86.6,72.7,60.6,73.2,67.0,60.3,100,84,60,30.13,30.04,4,0,9,0.00
2013-4-17,82.7,72.1,63.1,72.4,66.9,62.6,100,85,60,30.15,30.02,6,0,7,0.00
2013-4-18,79.2,71.8,60.9,73.5,69.2,60.3,100,92,79,30.02,29.88,7,1,11,0.00
2013-4-19,75.6,60.8,48.1,73.8,59.5,47.8,99,95,80,30.16,29.82,4,0,12,0.46
2013-4-20,69.0,53.8,41.1,48.9,44.3,39.5,100,75,38,30.26,30.13,7,0,10,0.00
2013-4-21,76.6,58.0,39.7,55.1,47.3,38.9,98,73,37,30.23,30.11,9,1,9,0.00
2013-4-22,72.9,63.0,52.2,63.8,57.3,49.1,97,82,70,30.17,30.07,7,1,7,0.00
2013-4-23,77.4,63.4,50.4,64.9,58.7,49.9,100,86,63,30.16,30.06,8,0,8,0.00
2013-4-24,78.5,64.9,52.8,70.8,62.7,52.3,100,93,69,30.15,30.05,6,0,6,0.09
2013-4-25,80.8,65.6,56.9,66.0,59.3,48.1,100,82,50,30.29,30.13,6,0,6,0.01
2013-4-26,83.8,65.6,48.0,59.2,51.1,44.1,95,64,32,30.32,30.22,8,0,8,0.00
2013-4-27,80.8,67.3,50.3,70.6,63.2,49.8,99,88,67,30.23,30.07,7,0,7,0.00
2013-4-28,82.0,72.8,64.6,72.0,67.5,63.6,100,85,55,30.11,29.95,5,0,5,0.00
2013-4-29,85.7,70.8,61.9,70.4,65.7,61.3,98,86,53,30.00,29.89,4,0,4,0.02
2013-4-30,82.4,69.9,57.6,72.4,65.3,57.2,100,87,62,29.98,29.90,6,0,6,0.00
2013-5-1,72.3,69.1,67.1,68.5,66.8,65.3,98,92,84,29.98,29.88,11,1,11,0.23
2013-5-2,76.0,69.0,64.3,69.9,65.9,62.9,99,90,78,30.01,29.90,12,1,12,1.70
2013-5-3,70.3,65.6,51.8,66.9,64.0,51.3,99,95,85,29.94,29.82,9,1,9,0.35
2013-5-4,70.2,56.1,45.3,51.2,45.7,41.9,98,73,38,29.95,29.88,9,1,11,0.23
2013-5-5,75.7,55.8,41.3,61.8,47.8,40.8,100,80,37,29.92,29.83,6,1,14,0.00
2013-5-6,73.6,58.2,41.5,56.7,50.1,40.9,99,77,49,30.02,29.92,2,0,9,0.00
2013-5-7,80.4,63.6,48.2,63.2,56.8,47.7,100,81,51,30.05,29.95,1,0,7,0.00
2013-5-8,82.5,67.0,52.5,68.6,60.9,51.8,99,83,47,30.12,30.02,5,0,5,0.00
2013-5-9,83.7,69.0,53.5,70.0,61.7,53.0,100,81,45,30.16,30.07,5,0,5,0.00
2013-5-10,79.3,67.8,57.9,70.4,64.7,57.2,99,90,70,30.15,29.91,8,0,8,0.00
2013-5-11,76.4,66.9,57.9,71.0,65.3,57.3,100,95,80,30.08,29.95,3,0,3,0.35
2013-5-12,80.7,70.3,60.7,65.9,60.6,52.2,100,74,41,30.11,29.99,8,0,8,0.00
2013-5-13,79.9,63.8,45.9,53.9,47.7,41.1,96,62,28,30.28,30.11,7,0,7,0.00
2013-5-14,83.3,66.0,46.5,60.1,54.3,45.7,99,71,37,30.29,30.17,6,0,6,0.00
2013-5-15,87.1,67.2,50.0,66.8,56.6,49.5,99,74,37,30.24,30.05,6,0,6,0.00
2013-5-16,85.7,70.3,61.4,71.2,65.5,58.6,98,86,59,30.08,30.00,9,0,9,0.00
2013-5-17,79.7,65.7,61.0,72.4,64.4,60.4,100,96,76,30.07,29.99,4,0,4,0.00
2013-5-18,86.7,76.8,67.9,75.7,71.8,66.8,98,85,67,30.10,30.02,4,0,6,0.00
2013-5-19,86.0,74.6,63.1,74.5,70.0,62.5,100,87,64,30.07,30.01,5,0,5,0.00
2013-5-20,90.3,76.9,65.1,75.7,70.6,64.5,100,83,50,30.06,29.97,6,0,6,0.00
2013-5-21,89.1,75.8,63.5,75.2,69.0,63.2,100,82,57,30.02,29.90,5,0,6,0.00
2013-5-22,88.5,74.8,63.0,75.6,70.2,62.1,100,87,57,30.01,29.89,6,0,6,0.00
2013-5-23,94.4,78.4,63.8,75.3,68.8,63.2,99,76,39,30.04,29.94,4,0,6,0.00
2013-5-24,91.2,77.0,60.1,71.6,63.9,55.3,99,68,35,30.16,30.01,7,0,11,0.00
2013-5-25,91.3,70.5,49.7,62.6,55.6,48.3,97,65,27,30.24,30.14,8,0,8,0.00
2013-5-26,89.0,72.9,56.6,73.4,64.3,55.5,97,78,44,30.23,30.13,5,0,5,0.00
2013-5-27,89.5,75.2,61.1,72.5,64.5,56.1,100,74,34,30.19,30.08,7,0,7,0.00
2013-5-28,87.0,73.1,58.3,74.7,67.5,57.5,99,84,58,30.11,30.05,6,0,9,0.00
2013-5-29,88.2,75.8,63.5,75.6,70.3,62.9,99,84,65,30.09,30.02,5,1,10,0.00
2013-5-30,87.7,78.0,68.1,74.4,70.8,67.2,99,80,57,30.09,30.01,9,1,12,0.00
2013-5-31,87.8,79.0,70.9,74.7,72.9,69.7,97,83,63,30.08,30.00,5,0,10,0.01
2013-6-1,87.9,78.1,70.2,77.9,73.9,69.3,98,88,70,30.03,29.95,7,0,7,0.00
2013-6-2,92.3,79.9,69.0,77.5,73.6,68.4,100,83,57,30.00,29.86,4,0,6,0.00
2013-6-3,90.2,77.9,69.5,78.3,73.7,68.6,99,88,63,29.93,29.84,4,0,5,0.31
2013-6-4,90.8,80.0,68.2,79.1,74.6,67.8,99,85,64,29.96,29.90,7,0,7,0.00
2013-6-5,89.2,80.2,70.3,78.7,74.6,67.7,99,84,63,29.96,29.85,9,0,9,0.28
2013-6-6,87.8,75.4,65.6,75.8,70.6,65.3,99,86,62,29.93,29.70,6,0,6,0.01
2013-6-7,86.7,77.2,67.1,74.8,71.1,66.5,99,83,63,29.91,29.76,6,0,6,0.00
2013-6-8,90.2,79.3,66.0,77.6,72.8,65.4,99,82,61,30.04,29.89,7,0,7,0.05
2013-6-9,73.5,71.7,69.1,73.5,71.6,68.5,100,100,96,30.10,29.94,5,0,5,5.80
2013-6-10,79.8,74.1,69.4,77.9,73.4,69.4,100,98,89,30.10,29.99,5,0,5,5.64
2013-6-11,94.7,80.0,68.8,82.0,75.5,68.8,100,88,53,30.10,29.99,4,0,5,0.01
2013-6-12,97.4,82.0,69.7,81.4,76.0,69.4,100,84,50,30.09,29.98,3,0,5,0.00
2013-6-13,96.7,84.5,72.5,82.0,76.5,71.9,100,79,54,30.02,29.86,6,0,6,0.00
2013-6-14,93.5,83.0,71.7,79.9,75.6,69.5,96,80,55,29.94,29.84,6,0,6,0.00
2013-6-15,92.5,80.6,68.0,80.5,74.7,66.0,97,83,64,30.03,29.93,6,0,6,0.00
2013-6-16,91.3,81.7,73.6,80.0,77.1,73.0,100,87,65,30.06,29.99,6,0,6,0.00
2013-6-17,90.9,82.4,75.6,81.3,77.3,74.5,99,85,66,30.02,29.94,8,0,8,0.00
2013-6-18,92.3,81.4,71.4,80.9,75.8,69.9,99,84,55,30.01,29.89,8,0,8,1.25
2013-6-19,88.5,77.4,69.5,79.8,74.3,69.2,100,91,66,30.03,29.93,7,0,7,0.72
2013-6-20,93.0,78.9,69.0,78.6,73.5,68.6,100,85,55,30.10,30.00,4,0,4,0.01
2013-6-21,88.9,77.1,69.0,80.1,73.8,68.7,100,91,64,30.12,30.05,6,0,6,0.29
2013-6-22,91.5,76.9,68.1,78.1,72.7,67.8,100,88,61,30.12,30.01,7,0,7,0.00
2013-6-23,85.0,76.7,69.5,78.4,74.4,69.2,100,93,78,30.13,30.03,5,0,5,0.32
2013-6-24,92.3,80.9,73.4,81.5,76.3,72.5,100,87,59,30.17,30.07,5,0,5,0.05
2013-6-25,88.4,78.4,69.7,80.8,75.4,69.4,100,91,73,30.14,30.02,4,0,4,0.64
2013-6-26,92.2,81.1,69.2,79.9,75.5,68.9,100,85,58,30.09,29.97,4,0,4,0.00
2013-6-27,93.6,83.3,71.6,82.6,77.5,71.3,100,84,63,30.02,29.89,6,0,6,0.00
2013-6-28,96.8,84.4,78.0,82.3,78.4,72.6,99,84,56,29.92,29.75,7,0,7,0.00
2013-6-29,90.7,81.1,72.8,80.7,75.3,69.7,96,83,70,29.80,29.67,6,0,6,0.00
2013-6-30,90.0,77.4,69.6,77.9,73.2,69.0,99,88,60,29.78,29.69,5,0,5,0.01
2013-7-1,93.2,80.0,69.4,78.2,72.4,68.8,99,80,50,29.90,29.75,4,0,4,0.00
2013-7-2,71.6,69.7,68.5,70.0,68.6,67.7,98,96,94,29.90,29.88,0,0,0,0.00
2013-7-3,84.7,75.0,69.4,77.6,73.0,68.4,99,94,75,30.04,29.96,7,0,8,0.28
2013-7-4,80.4,75.6,72.6,77.9,73.8,71.3,100,95,81,30.03,29.91,8,0,8,2.73
2013-7-5,76.5,72.7,69.9,75.6,72.6,69.9,100,100,97,30.10,30.00,3,0,3,4.82
2013-7-6,75.7,73.1,69.9,75.7,73.1,69.9,100,100,99,30.07,30.00,5,0,5,2.26
2013-7-7,80.1,74.8,71.7,80.1,74.8,71.7,100,100,98,30.13,30.03,3,0,3,0.61
2013-7-8,85.9,77.5,72.3,81.2,76.1,72.3,100,96,80,30.18,30.10,2,0,3,0.00
2013-7-9,91.3,79.7,71.2,80.8,75.7,71.2,100,89,63,30.20,30.08,3,0,3,0.00
2013-7-10,91.7,77.0,70.2,80.9,74.4,69.9,100,92,66,30.11,29.98,6,0,6,0.02
2013-7-11,81.5,74.3,71.1,78.8,73.8,70.8,100,98,90,30.02,29.90,9,0,10,3.06
2013-7-12,92.7,80.2,71.5,80.8,75.8,71.1,100,87,63,29.93,29.83,4,0,4,0.00
2013-7-13,87.3,74.7,69.3,79.6,72.7,67.7,100,94,72,29.99,29.87,14,0,14,0.79
2013-7-14,86.2,75.9,68.0,79.0,73.2,67.5,99,92,72,30.04,29.92,8,0,8,1.00
2013-7-15,87.5,77.9,70.3,78.5,75.0,69.9,100,92,66,30.14,30.03,8,0,8,0.16
2013-7-16,90.3,79.4,71.9,80.8,75.1,71.6,99,88,64,30.18,30.10,10,1,10,0.74
2013-7-17,92.5,80.7,70.2,79.2,75.0,70.2,100,85,55,30.22,30.08,2,0,5,0.00
2013-7-18,91.7,77.4,70.2,79.2,74.1,69.9,100,90,61,30.14,30.00,4,0,5,0.30
2013-7-19,88.0,77.4,68.9,79.2,74.3,68.6,100,91,70,30.09,29.96,8,0,8,0.00
2013-7-20,82.5,75.8,71.4,81.5,75.6,71.1,100,99,94,30.02,29.93,6,0,6,4.21
2013-7-21,85.8,77.1,72.9,80.9,75.4,72.8,100,95,79,30.08,29.99,9,0,9,1.45
2013-7-22,87.2,76.2,71.6,80.8,74.9,71.6,100,96,79,30.08,30.00,11,0,11,1.27
2013-7-23,91.5,77.5,71.1,81.6,74.8,70.2,100,92,68,30.04,29.92,9,0,9,1.31
2013-7-24,89.0,79.2,71.2,82.8,76.6,71.2,100,92,73,29.95,29.86,8,0,8,0.40
2013-7-25,92.0,80.1,71.8,81.5,75.9,71.5,100,88,64,30.00,29.85,7,0,7,0.51
2013-7-26,92.9,81.9,70.7,81.8,75.7,70.4,100,83,55,30.04,29.95,4,0,4,0.00
2013-7-27,85.0,77.0,72.6,80.4,75.0,72.3,100,94,77,29.97,29.92,0,0,3,0.09
2013-7-28,90.2,79.7,73.3,81.1,76.6,73.0,100,91,67,30.00,29.88,3,0,5,0.24
2013-7-29,93.6,81.2,71.9,82.3,76.9,71.6,100,88,66,30.12,29.98,4,0,5,0.00
2013-7-30,93.7,82.9,74.0,81.3,77.6,73.6,100,85,61,30.16,30.05,5,0,5,0.00
2013-7-31,91.0,78.1,73.5,82.6,76.5,73.2,100,95,71,30.10,29.98,5,0,5,2.18
2013-8-1,89.8,78.2,74.1,83.1,76.6,73.4,100,95,69,30.02,29.92,6,0,7,2.15
2013-8-2,93.0,80.9,72.4,82.0,76.7,72.4,100,88,64,30.03,29.92,4,0,4,0.00
2013-8-3,96.5,82.9,72.5,83.0,77.9,72.2,100,86,52,30.06,29.97,4,0,4,0.00
2013-8-4,96.1,82.5,72.7,83.2,77.3,72.4,100,86,57,30.07,29.95,8,0,9,0.02
2013-8-5,96.0,82.7,71.6,82.1,76.7,71.3,100,84,54,30.04,29.93,5,0,5,0.00
2013-8-6,96.3,81.0,73.6,82.1,76.7,73.3,100,88,61,30.03,29.89,7,0,7,0.88
2013-8-7,94.7,81.6,71.6,82.7,76.5,71.6,100,86,56,29.99,29.90,1,0,5,0.05
2013-8-8,93.7,80.7,73.7,81.4,77.4,73.5,100,91,63,29.99,29.92,6,0,6,0.23
2013-8-9,91.3,82.2,75.4,81.9,78.1,75.0,99,88,69,30.06,29.95,8,0,8,0.02
2013-8-10,89.5,77.4,72.2,80.3,75.6,71.7,100,95,71,30.13,30.03,6,0,6,5.25
2013-8-11,92.2,81.4,71.7,82.2,77.1,71.7,100,88,67,30.15,30.07,5,0,5,0.02
2013-8-12,92.2,78.6,72.6,82.2,76.2,72.3,100,93,65,30.12,30.04,4,0,4,2.01
2013-8-13,91.1,78.0,72.2,83.2,75.9,72.2,100,94,71,30.06,29.93,10,0,10,0.08
2013-8-14,88.9,79.1,72.6,80.7,75.9,72.3,100,91,72,29.96,29.88,3,0,7,0.04
2013-8-15,86.8,77.7,73.8,79.3,75.8,73.5,100,94,73,29.97,29.90,4,0,5,1.01
2013-8-16,79.3,75.6,72.8,77.2,74.9,72.8,100,98,90,30.00,29.92,3,0,3,0.04
2013-8-17,74.6,72.7,70.4,74.6,72.6,70.3,100,100,99,30.03,29.93,6,0,6,2.61
2013-8-18,77.3,73.5,70.3,77.0,73.4,70.3,100,100,98,30.07,29.98,14,0,14,2.74
2013-8-19,91.1,79.9,70.8,81.0,75.9,70.8,100,89,65,30.06,29.97,5,0,5,0.00
2013-8-20,87.3,75.7,70.5,80.1,74.2,70.5,100,95,78,30.10,29.99,9,0,9,0.59
2013-8-21,91.3,75.6,69.5,81.8,73.6,69.2,100,94,67,30.14,30.06,4,0,4,0.04
2013-8-22,90.7,77.9,68.6,80.6,74.8,68.6,100,91,67,30.11,29.97,6,0,6,0.19
2013-8-23,81.6,75.2,70.5,78.1,74.2,70.5,100,97,85,30.04,29.94,3,0,3,0.08
2013-8-24,83.4,76.0,71.3,78.4,74.4,71.3,100,95,81,30.14,29.99,6,0,6,0.01
2013-8-25,86.4,77.0,71.5,79.1,74.6,71.3,100,93,74,30.20,30.10,7,0,8,0.25
2013-8-26,90.8,77.8,67.6,73.9,69.7,66.2,98,78,51,30.21,30.09,9,0,9,0.00
2013-8-27,90.5,74.9,63.0,74.9,68.5,62.4,98,83,53,30.13,30.01,4,0,4,0.00
2013-8-28,88.8,76.2,65.1,79.6,71.8,64.8,99,87,62,30.08,29.99,3,0,3,0.00
2013-8-29,93.6,79.1,68.4,79.1,73.3,68.1,100,85,52,30.07,29.96,2,0,2,0.00
2013-8-30,93.4,79.8,69.2,81.3,74.8,68.8,100,86,62,30.03,29.89,4,0,4,0.00
2013-8-31,88.5,77.4,72.3,80.8,75.2,72.0,99,93,76,29.96,29.86,6,0,6,0.10
2013-9-1,93.3,77.7,69.9,81.8,74.9,69.9,100,92,64,29.94,29.84,5,0,5,2.02
2013-9-2,92.5,77.1,71.2,82.3,75.2,71.2,100,95,69,29.99,29.90,7,0,7,1.54
2013-9-3,91.5,74.9,69.6,82.5,73.4,69.6,100,96,72,30.00,29.89,14,0,14,1.80
2013-9-4,91.0,77.6,67.9,82.0,74.6,67.8,100,91,67,30.08,29.97,4,0,4,0.00
2013-9-5,93.2,79.7,69.6,81.2,75.5,69.6,100,88,62,30.12,30.02,3,0,3,0.00
2013-9-6,91.9,79.8,70.8,77.4,73.7,70.7,100,84,53,30.10,29.98,5,0,5,0.00
2013-9-7,91.4,78.0,66.3,77.8,72.8,66.0,100,86,58,30.05,29.97,6,0,6,0.00
2013-9-8,92.1,78.9,68.1,79.4,73.5,67.8,100,85,56,30.00,29.92,3,0,3,0.00
2013-9-9,92.2,78.5,66.7,79.0,72.9,66.4,100,85,57,30.05,29.96,4,0,4,0.00
2013-9-10,91.1,79.7,72.1,78.6,74.2,71.4,99,85,56,30.13,30.03,3,0,5,0.00
2013-9-11,90.3,78.2,69.1,75.8,71.7,68.6,99,83,53,30.14,30.03,8,0,8,0.00
2013-9-12,92.8,78.5,68.6,79.2,72.6,68.1,100,84,49,30.05,29.91,6,0,6,0.00
2013-9-13,94.7,79.5,66.4,78.8,72.6,66.1,100,82,48,29.94,29.80,5,0,5,0.00
2013-9-14,86.1,77.4,69.9,75.1,71.6,67.1,97,83,61,30.00,29.85,1,0,5,0.00
2013-9-15,92.9,78.6,64.4,79.4,72.0,63.5,98,82,60,30.07,29.99,6,0,6,0.00
2013-9-16,91.7,78.8,68.8,80.8,74.7,68.5,100,89,63,30.09,29.99,5,0,5,0.23
2013-9-17,90.3,78.5,70.2,80.4,74.7,70.2,100,89,64,30.08,29.97,6,0,6,0.81
2013-9-18,84.3,76.7,71.7,77.8,74.0,71.4,99,92,75,30.10,30.01,6,0,6,0.13
2013-9-19,89.2,77.8,70.0,76.9,72.0,68.2,98,84,58,30.09,29.99,6,0,6,0.00
2013-9-20,89.3,77.8,67.7,79.4,73.8,67.4,100,89,66,30.03,29.86,6,0,6,0.01
2013-9-21,80.2,76.0,74.1,79.6,75.9,73.8,100,100,93,29.86,29.73,6,0,6,3.43
2013-9-22,76.1,72.1,68.4,75.1,71.6,68.4,100,98,92,29.81,29.74,3,0,5,0.71
2013-9-23,88.9,77.5,70.7,79.7,74.9,70.7,100,92,72,29.90,29.78,2,0,4,0.08
2013-9-24,83.8,76.2,70.8,79.5,75.2,70.2,100,97,85,29.91,29.78,9,0,9,1.50
2013-9-25,88.0,75.9,67.2,78.3,73.4,66.8,100,92,69,29.82,29.74,5,0,5,0.01
2013-9-26,86.8,74.2,63.7,76.4,69.8,63.7,100,88,62,29.96,29.81,6,0,6,0.00
2013-9-27,84.4,71.4,61.1,70.3,66.2,60.8,100,85,57,30.06,29.95,6,0,6,0.00
2013-9-28,83.4,69.3,56.9,69.2,63.8,56.6,100,85,56,30.10,30.01,4,0,7,0.00
2013-9-29,82.5,70.1,58.2,72.4,65.8,57.6,99,87,59,30.07,29.95,4,0,4,0.00
2013-9-30,72.2,67.8,66.7,68.7,66.5,65.6,98,96,89,30.01,29.94,0,0,0,0.00
2013-10-1,88.1,74.9,65.7,77.0,70.7,65.4,100,88,58,30.08,29.98,3,0,6,0.00
2013-10-2,81.1,73.5,68.4,75.9,71.8,68.1,100,95,82,30.09,30.01,7,0,7,0.04
2013-10-3,85.8,75.8,66.6,78.0,72.7,66.0,99,91,70,30.08,29.99,7,0,7,0.00
2013-10-4,87.2,76.9,69.0,77.5,73.1,68.7,100,89,67,30.08,30.00,4,0,6,0.00
2013-10-5,86.9,77.6,68.4,77.7,74.0,68.1,100,90,69,30.05,29.95,7,0,7,0.00
2013-10-6,80.6,73.5,70.2,77.2,73.0,70.2,100,98,86,29.95,29.81,4,0,4,3.82
2013-10-7,78.3,66.7,57.6,71.2,60.3,55.4,100,82,50,29.98,29.83,10,0,10,0.03
2013-10-8,85.2,65.8,51.6,69.6,60.6,51.1,99,85,57,30.01,29.95,4,0,4,0.00
2013-10-9,76.6,68.6,62.5,70.6,66.0,61.9,99,92,79,30.12,30.00,7,0,7,0.00
2013-10-10,84.6,68.0,57.4,73.2,64.7,57.1,100,90,58,30.13,30.01,0,0,0,0.00
2013-10-11,86.8,70.5,59.8,73.5,65.6,59.5,100,87,56,30.08,29.97,0,0,0,0.00
2013-10-12,89.7,70.8,58.7,73.8,66.0,58.4,100,87,51,30.09,30.00,0,0,0,0.00
2013-10-13,84.5,71.1,61.2,70.7,65.0,60.9,100,84,52,30.16,30.06,6,0,6,0.00
2013-10-14,83.1,70.6,59.3,70.8,65.5,59.0,100,86,60,30.13,30.01,6,0,6,0.00
2013-10-15,84.3,69.0,58.4,71.7,64.9,57.8,100,88,59,30.08,29.96,4,0,4,0.00
2013-10-16,83.6,69.3,56.9,72.4,65.2,56.6,100,88,62,30.04,29.92,1,0,4,0.00
2013-10-17,80.5,71.4,63.4,77.4,70.4,63.1,100,97,85,29.98,29.88,3,0,3,0.63
2013-10-18,77.7,68.7,64.1,69.6,66.1,63.0,99,92,74,30.02,29.92,4,0,4,0.00
2013-10-19,70.8,65.9,62.4,66.9,63.5,60.3,99,92,78,30.02,29.91,2,0,7,0.03
2013-10-20,74.6,62.8,55.1,63.6,59.0,54.8,99,89,63,30.06,29.97,7,0,7,0.00
2013-10-21,73.2,63.5,57.5,67.3,61.3,56.6,98,93,77,30.08,29.97,2,0,2,0.00
2013-10-22,75.5,65.3,57.6,69.8,63.8,56.9,100,95,80,29.99,29.88,2,0,2,0.09
2013-10-23,71.9,59.0,47.0,57.6,52.1,45.5,100,81,41,30.14,29.95,9,0,9,0.01
2013-10-24,75.2,55.4,40.6,59.5,49.4,40.1,99,83,47,30.25,30.12,4,0,4,0.00
2013-10-25,65.2,53.7,42.2,50.7,46.0,39.4,99,79,40,30.39,30.20,11,0,11,0.00
2013-10-26,70.8,50.5,35.5,54.5,42.7,34.7,98,78,40,30.33,30.18,4,0,4,0.00
2013-10-27,73.7,56.2,40.3,61.3,51.2,39.8,100,86,51,30.20,30.11,1,0,1,0.00
2013-10-28,78.1,61.6,49.0,65.5,57.5,48.7,100,88,63,30.23,30.12,4,0,4,0.00
2013-10-29,77.4,61.8,48.3,66.0,57.8,48.0,100,88,58,30.29,30.20,6,0,6,0.00
2013-10-30,78.3,64.0,51.4,71.6,61.9,51.1,100,93,75,30.24,30.10,6,0,6,0.00
2013-10-31,80.1,67.5,58.0,74.3,65.7,57.7,100,94,80,30.10,29.88,5,0,6,0.00
2013-11-1,75.1,69.0,58.4,74.3,68.5,57.9,100,98,95,29.90,29.78,5,0,5,1.12
2013-11-2,73.0,58.6,48.2,62.3,53.7,47.5,100,86,53,30.11,29.89,7,0,7,0.00
2013-11-3,66.6,52.0,41.5,51.8,45.8,40.9,98,82,46,30.24,30.11,5,0,7,0.00
2013-11-4,71.2,56.9,41.1,59.3,51.0,40.6,100,82,61,30.31,30.20,9,0,9,0.01
2013-11-5,74.8,63.6,53.8,63.1,55.6,47.4,84,75,65,30.31,30.17,7,1,8,0.00
2013-11-6,75.1,64.7,54.7,69.3,61.7,52.8,99,90,77,30.19,30.08,2,0,4,0.00
2013-11-7,66.3,57.8,45.8,66.0,55.9,42.8,100,93,78,30.24,30.03,8,0,8,0.26
2013-11-8,63.3,49.9,39.2,46.8,40.9,36.6,98,74,43,30.31,30.19,9,0,9,0.00
2013-11-9,69.8,54.0,38.7,59.4,50.1,38.2,99,88,64,30.27,30.18,6,0,6,0.00
2013-11-10,72.8,59.1,48.6,62.1,55.2,48.2,100,88,63,30.27,30.17,6,0,6,0.00
2013-11-11,72.7,56.2,42.5,58.3,50.0,42.2,100,83,43,30.25,30.14,3,0,3,0.00
2013-11-12,70.9,54.6,40.6,55.4,46.1,25.3,99,75,51,30.43,30.16,13,0,13,0.00
2013-11-13,53.7,40.2,29.3,34.6,27.1,22.5,96,62,36,30.50,30.41,13,1,13,0.00
2013-11-14,62.0,45.4,26.1,50.5,39.5,24.9,96,81,58,30.44,30.19,6,0,6,0.00
2013-11-15,67.5,60.7,54.7,65.7,58.6,48.7,99,93,76,30.19,30.02,7,0,7,0.06
2013-11-16,71.6,65.7,60.7,67.8,64.1,60.2,99,95,86,30.13,30.02,5,0,5,0.02
2013-11-17,81.0,72.8,67.6,76.3,71.5,67.2,100,96,83,30.02,29.93,5,0,5,0.07
2013-11-18,73.8,69.3,57.5,73.8,68.8,53.4,100,98,85,30.04,29.94,3,0,3,2.13
2013-11-19,62.6,54.3,43.0,49.5,44.9,41.1,94,72,51,30.14,30.01,7,0,7,0.00
2013-11-20,67.8,53.4,38.9,59.1,49.8,38.4,99,88,70,30.19,30.06,5,0,5,0.00
2013-11-21,66.3,60.1,54.3,62.5,57.5,51.7,99,91,84,30.26,30.18,6,0,6,0.00
2013-11-22,73.4,65.8,62.0,69.1,63.8,61.0,97,93,86,30.25,30.17,5,0,5,0.00
2013-11-23,68.1,61.7,50.6,65.4,59.3,42.6,100,92,74,30.25,30.14,4,0,6,0.00
2013-11-24,53.8,46.1,38.8,42.2,34.3,28.1,88,65,41,30.37,30.25,8,1,12,0.00
2013-11-25,57.3,49.2,39.0,54.8,43.5,34.1,99,81,70,30.32,29.91,4,1,11,0.23
2013-11-26,67.1,55.6,45.0,67.1,55.2,44.5,100,98,95,29.91,29.68,14,1,14,1.90
2013-11-27,46.3,39.7,28.5,44.7,34.6,26.4,99,83,55,30.38,29.88,13,1,13,0.08
2013-11-28,49.2,34.8,24.9,35.8,27.8,23.4,97,79,42,30.49,30.37,6,0,6,0.00
2013-11-29,58.5,39.4,26.5,40.1,31.5,25.5,97,78,35,30.55,30.42,7,0,7,0.00
2013-11-30,63.3,43.7,28.3,51.1,38.8,27.8,99,85,55,30.47,30.28,2,0,6,0.00
2013-12-1,64.9,49.5,36.1,54.3,46.2,35.6,100,90,61,30.28,30.03,1,0,4,0.00
2013-12-2,67.9,54.4,44.8,57.9,51.3,44.5,100,90,67,30.03,29.82,3,0,3,0.00
2013-12-3,76.8,61.9,47.7,68.0,59.0,47.4,100,91,65,29.88,29.80,8,0,8,0.00
2013-12-4,76.3,65.7,55.3,74.1,65.5,55.0,100,99,91,29.99,29.88,0,0,0,0.91
2013-12-5,76.5,73.1,70.2,75.0,72.5,70.2,100,98,92,30.08,29.98,9,0,9,0.10
2013-12-6,77.5,73.2,61.1,74.7,72.1,59.9,99,96,90,30.14,30.00,5,0,8,0.00
2013-12-7,60.9,48.1,45.9,60.0,46.7,44.2,99,95,91,30.29,30.12,8,0,8,0.00
2013-12-8,75.3,61.6,46.4,71.5,60.8,46.1,100,98,87,30.23,30.07,9,0,9,0.00
2013-12-9,72.0,68.0,61.1,72.0,67.8,60.9,100,99,94,30.11,30.04,5,0,5,0.26
2013-12-10,67.0,47.9,36.6,67.0,46.2,35.1,100,94,79,30.36,30.03,11,0,11,0.18
2013-12-11,59.9,46.5,34.0,49.7,42.0,33.2,100,86,61,30.39,30.30,5,0,5,0.00
2013-12-12,56.1,45.2,31.9,44.7,36.0,29.0,95,73,37,30.50,30.37,10,0,10,0.00
2013-12-13,58.7,44.1,28.3,48.8,38.1,26.5,96,81,57,30.38,30.06,5,0,5,0.00
2013-12-14,73.6,63.0,50.5,71.1,60.9,46.8,100,93,84,30.06,29.83,9,0,9,0.22
2013-12-15,58.3,52.6,42.5,58.0,50.3,38.3,99,92,78,30.20,29.93,7,1,7,0.00
2013-12-16,57.4,40.6,29.8,44.1,35.9,29.3,99,85,50,30.35,30.25,5,0,5,0.00
2013-12-17,62.5,44.8,31.8,47.2,39.2,31.0,100,84,42,30.34,30.22,6,0,6,0.00
2013-12-18,62.0,44.8,36.2,45.0,38.5,35.0,100,83,41,30.39,30.27,7,0,7,0.00
2013-12-19,66.3,50.5,36.1,59.8,48.0,35.8,100,92,74,30.30,30.13,6,0,6,0.00
2013-12-20,72.0,62.3,50.6,68.3,61.0,50.3,100,96,87,30.16,30.03,6,0,6,0.01
2013-12-21,74.8,71.1,67.0,72.7,70.1,66.3,100,97,93,30.03,29.89,9,0,9,0.00
2013-12-22,75.6,69.7,62.4,74.1,68.6,61.8,99,96,88,30.10,29.88,4,0,11,0.40
2013-12-23,62.7,52.7,43.1,62.1,51.2,40.1,100,95,89,30.38,30.06,5,1,9,0.00
2013-12-24,50.4,41.2,28.2,40.1,34.9,27.2,96,80,52,30.49,30.36,8,0,8,0.00
2013-12-25,51.5,38.7,27.8,38.8,32.3,26.5,97,80,46,30.41,30.28,6,0,6,0.00
2013-12-26,55.8,45.1,36.5,43.7,39.6,35.5,97,82,59,30.35,30.25,9,0,9,0.00
2013-12-27,60.0,49.8,39.1,43.9,40.6,37.4,96,72,52,30.39,30.27,6,0,6,0.00
2013-12-28,52.7,50.5,47.8,49.1,44.7,37.7,100,82,66,30.28,29.89,7,0,7,0.65
2013-12-29,55.2,48.0,38.8,52.8,47.3,38.5,100,98,89,30.13,29.92,4,0,7,0.00
2013-12-30,58.0,46.7,35.9,54.0,45.9,35.7,100,97,83,30.28,30.12,0,0,0,0.00
2013-12-31,49.2,45.7,43.5,48.9,44.1,40.9,99,94,86,30.42,30.27,6,0,6,0.01
2014-1-1,59.2,50.0,43.6,56.6,48.9,42.3,100,96,90,30.34,30.03,4,0,4,0.08
2014-1-2,58.6,50.1,37.5,58.2,47.3,31.0,100,90,73,30.28,29.92,13,0,13,0.03